Time;durP1;ratioP1;P1;durP2;ratioP2;P2;SDS_P1;SDS_P2;PMS_P1;PMS_P2;Temp;Humidity;BMP_temperature;BMP_pressure;BME280_temperature;BME280_humidity;BME280_pressure;Samples;Min_cycle;Max_cycle;Signal;HPM_P1;HPM_P2
2023/01/19 00:00:39;;;;;;;57.63;41.50;;;25.40;99.90;;;;;;4983576;28;20025;-69
2023/01/19 00:03:14;;;;;;;31.17;21.70;;;25.50;99.90;;;;;;5036530;28;20108;-70
2023/01/19 00:05:42;;;;;;;34.83;25.13;;;25.40;99.90;;;;;;5036577;28;20025;-68
2023/01/19 00:08:19;;;;;;;8.43;5.15;;;25.50;99.90;;;;;;5036468;28;20508;-68
2023/01/19 00:10:49;;;;;;;33.10;22.35;;;25.50;99.90;;;;;;5036290;28;20037;-66
2023/01/19 00:13:16;;;;;;;38.97;28.02;;;25.50;99.90;;;;;;5036206;28;20022;-66
2023/01/19 00:15:43;;;;;;;33.45;25.70;;;25.50;99.90;;;;;;5040545;28;20037;-68
2023/01/19 00:18:10;;;;;;;45.22;35.38;;;25.50;99.90;;;;;;5044356;28;20079;-67
2023/01/19 00:20:36;;;;;;;41.70;32.80;;;25.50;99.90;;;;;;5046026;28;20128;-68
2023/01/19 03:11:20;;;;;;;166.13;136.93;;;24.70;99.90;;;;;;5070738;28;20892;-66
2023/01/19 03:14:03;;;;;;;41.78;30.92;;;24.70;99.90;;;;;;5061002;28;20044;-67
2023/01/19 03:16:37;;;;;;;32.35;25.00;;;24.80;99.90;;;;;;5058613;28;20398;-70
2023/01/19 03:19:10;;;;;;;26.38;21.42;;;25.00;99.90;;;;;;5056821;28;20021;-68
2023/01/19 03:21:38;;;;;;;26.55;20.58;;;25.10;99.90;;;;;;5058917;28;20020;-68
2023/01/19 03:24:07;;;;;;;27.30;19.52;;;25.20;99.90;;;;;;5056825;28;20013;-68
2023/01/19 03:26:40;;;;;;;25.55;19.15;;;25.30;99.90;;;;;;5059789;28;20100;-68
2023/01/19 03:29:08;;;;;;;29.35;18.58;;;;;;;;;;5060526;28;20028;-70
2023/01/19 03:31:35;;;;;;;24.55;18.08;;;25.50;99.90;;;;;;5060635;28;20013;-70
2023/01/19 03:34:07;;;;;;;24.65;18.23;;;25.50;99.90;;;;;;5058995;28;20014;-69
2023/01/19 03:36:44;;;;;;;24.63;17.70;;;25.60;99.90;;;;;;5058285;28;20407;-72
2023/01/19 03:39:17;;;;;;;22.80;18.42;;;25.70;99.90;;;;;;5058544;28;20048;-67
2023/01/19 03:41:47;;;;;;;26.98;19.98;;;25.70;99.90;;;;;;5056404;28;20032;-69
2023/01/19 03:44:14;;;;;;;22.05;17.45;;;25.70;99.90;;;;;;5059271;28;20055;-71
2023/01/19 03:46:40;;;;;;;21.38;16.67;;;25.80;99.90;;;;;;5060747;28;20054;-69
2023/01/19 03:49:08;;;;;;;22.45;18.10;;;25.80;99.90;;;;;;5059478;28;20025;-69
2023/01/19 03:51:37;;;;;;;22.33;19.08;;;25.80;99.90;;;;;;5059293;28;20013;-67
2023/01/19 03:54:06;;;;;;;25.38;19.48;;;25.80;99.90;;;;;;5056216;28;20536;-67
2023/01/19 03:56:32;;;;;;;22.48;17.67;;;25.80;99.90;;;;;;5059565;28;20023;-69
2023/01/19 03:58:59;;;;;;;25.65;19.42;;;25.80;99.90;;;;;;5051415;28;20067;-68
2023/01/19 04:01:26;;;;;;;28.45;19.80;;;25.90;99.90;;;;;;5039568;28;20032;-68
2023/01/19 04:03:53;;;;;;;25.77;18.70;;;26.00;99.90;;;;;;5040029;28;20466;-68
2023/01/19 04:06:20;;;;;;;23.20;16.75;;;25.90;99.90;;;;;;5038272;28;20032;-68
2023/01/19 04:08:48;;;;;;;22.83;16.40;;;26.00;99.90;;;;;;5039292;28;20014;-67
2023/01/19 04:11:15;;;;;;;23.52;17.65;;;26.10;99.90;;;;;;5039122;28;20117;-68
2023/01/19 04:13:42;;;;;;;31.10;18.00;;;26.10;99.90;;;;;;5040225;28;20013;-68
2023/01/19 04:16:10;;;;;;;25.13;15.95;;;26.10;99.90;;;;;;5038630;28;20026;-68
2023/01/19 04:18:36;;;;;;;20.10;12.93;;;26.10;99.90;;;;;;5038578;28;20385;-68
2023/01/19 04:21:05;;;;;;;17.95;10.23;;;26.10;99.90;;;;;;5036049;28;20378;-68
2023/01/19 04:23:32;;;;;;;13.45;8.70;;;26.10;99.90;;;;;;5026290;28;20026;-68
2023/01/19 04:26:01;;;;;;;13.77;8.88;;;26.10;99.90;;;;;;5024761;28;20053;-70
2023/01/19 04:28:28;;;;;;;14.50;10.10;;;26.10;99.90;;;;;;5023663;28;20025;-70
2023/01/19 04:30:55;;;;;;;15.18;8.63;;;26.10;99.90;;;;;;5026143;28;20386;-67
2023/01/19 04:33:21;;;;;;;11.38;7.10;;;26.10;99.90;;;;;;5024634;28;20421;-68
2023/01/19 04:35:49;;;;;;;12.57;8.07;;;26.10;99.90;;;;;;5026104;28;20378;-67
2023/01/19 04:38:16;;;;;;;16.10;7.63;;;26.20;99.90;;;;;;5026458;28;20026;-68
2023/01/19 04:40:42;;;;;;;13.00;7.32;;;26.20;99.90;;;;;;5024838;28;20052;-68
2023/01/19 04:43:09;;;;;;;11.68;6.18;;;26.30;99.90;;;;;;5025852;28;20030;-68
2023/01/19 04:45:36;;;;;;;14.60;7.03;;;26.30;99.90;;;;;;5026250;28;20022;-67
2023/01/19 04:48:03;;;;;;;16.20;7.75;;;26.40;99.90;;;;;;5024547;28;20467;-66
2023/01/19 04:50:30;;;;;;;14.07;7.47;;;26.40;99.90;;;;;;5025457;28;20390;-69
2023/01/19 04:52:57;;;;;;;14.15;7.93;;;26.40;99.90;;;;;;5026604;28;20430;-67
2023/01/19 04:55:23;;;;;;;12.15;7.28;;;26.50;99.90;;;;;;5024486;28;20022;-68
2023/01/19 04:57:50;;;;;;;14.93;7.45;;;26.40;99.90;;;;;;5025508;28;20052;-69
2023/01/19 05:00:17;;;;;;;12.27;5.53;;;26.50;99.90;;;;;;5027481;28;20130;-67
2023/01/19 05:02:44;;;;;;;11.80;6.55;;;26.50;99.90;;;;;;5026667;28;20025;-69
2023/01/19 05:05:12;;;;;;;12.40;6.82;;;26.60;99.90;;;;;;5025409;28;20037;-69
2023/01/19 05:07:38;;;;;;;17.15;8.02;;;26.60;99.90;;;;;;5022231;28;20033;-71
2023/01/19 05:10:06;;;;;;;12.43;7.15;;;26.70;99.90;;;;;;5022127;28;20145;-72
2023/01/19 05:12:33;;;;;;;14.10;7.35;;;26.70;99.90;;;;;;5018036;28;20021;-68
2023/01/19 05:15:00;;;;;;;12.10;8.23;;;26.70;99.90;;;;;;5014940;28;20017;-68
2023/01/19 05:17:27;;;;;;;17.95;7.32;;;26.80;99.90;;;;;;5014987;28;20382;-69
2023/01/19 05:19:53;;;;;;;15.30;6.30;;;26.70;99.90;;;;;;5024813;28;20250;-66
2023/01/19 05:22:20;;;;;;;16.10;7.50;;;26.70;99.90;;;;;;5033884;28;20025;-68
2023/01/19 05:24:46;;;;;;;12.38;7.03;;;26.80;99.90;;;;;;5033869;28;20033;-68
2023/01/19 05:27:13;;;;;;;14.02;6.60;;;26.80;99.90;;;;;;5028972;28;20034;-69
2023/01/19 05:29:39;;;;;;;18.17;7.68;;;26.90;99.90;;;;;;5023935;28;20358;-69
2023/01/19 05:32:06;;;;;;;13.45;6.60;;;26.90;99.90;;;;;;5026691;28;20025;-68
2023/01/19 05:34:33;;;;;;;18.48;6.07;;;27.00;99.90;;;;;;5027216;28;20333;-68
2023/01/19 05:36:59;;;;;;;12.20;6.32;;;27.00;99.90;;;;;;5023616;28;20022;-68
2023/01/19 05:39:26;;;;;;;11.10;7.68;;;27.00;99.90;;;;;;5021130;28;20022;-69
2023/01/19 05:41:52;;;;;;;17.15;9.27;;;27.00;99.90;;;;;;5020839;28;20033;-66
2023/01/19 05:44:19;;;;;;;17.45;10.95;;;27.10;99.90;;;;;;5025877;28;20021;-67
2023/01/19 05:46:45;;;;;;;15.82;9.73;;;27.20;99.90;;;;;;5022269;28;20036;-68
2023/01/19 05:49:12;;;;;;;18.25;9.95;;;27.20;99.90;;;;;;5022314;28;20026;-68
2023/01/19 05:51:39;;;;;;;16.13;8.25;;;27.20;99.90;;;;;;5020263;28;20080;-67
2023/01/19 05:54:07;;;;;;;13.05;8.65;;;27.20;99.90;;;;;;5024467;28;20022;-68
2023/01/19 05:56:34;;;;;;;16.15;9.13;;;27.20;99.90;;;;;;5022964;28;20030;-68
2023/01/19 05:59:01;;;;;;;13.63;7.78;;;27.30;99.90;;;;;;5021566;28;20030;-66
2023/01/19 06:01:28;;;;;;;11.77;6.65;;;27.30;99.90;;;;;;5018363;28;20021;-68
2023/01/19 06:03:54;;;;;;;12.80;6.97;;;27.30;99.90;;;;;;5017867;28;20024;-67
2023/01/19 06:06:21;;;;;;;11.48;5.55;;;27.30;99.90;;;;;;5016688;28;20021;-66
2023/01/19 06:08:48;;;;;;;12.05;6.50;;;27.40;99.90;;;;;;5016918;28;20018;-66
2023/01/19 06:11:14;;;;;;;11.40;4.90;;;27.40;99.90;;;;;;5030049;28;20038;-69
2023/01/19 06:13:41;;;;;;;8.15;4.70;;;27.40;99.90;;;;;;5030449;28;20079;-66
2023/01/19 06:16:08;;;;;;;11.32;4.85;;;27.40;99.90;;;;;;5028281;28;20009;-67
2023/01/19 06:18:35;;;;;;;11.48;4.68;;;27.40;99.90;;;;;;5027873;28;20022;-68
2023/01/19 06:21:06;;;;;;;9.77;4.32;;;27.40;99.90;;;;;;5028515;28;20363;-67
2023/01/19 06:23:34;;;;;;;11.55;5.32;;;27.50;99.90;;;;;;5027921;28;20029;-67
2023/01/19 06:26:02;;;;;;;9.93;4.25;;;27.50;99.90;;;;;;5013207;28;20026;-66
2023/01/19 06:28:28;;;;;;;14.80;4.90;;;27.50;99.90;;;;;;5017280;28;20512;-67
2023/01/19 06:30:56;;;;;;;12.63;5.30;;;27.50;99.90;;;;;;5023410;28;20040;-66
2023/01/19 06:33:23;;;;;;;7.57;3.28;;;27.50;99.90;;;;;;5027285;28;20084;-67
2023/01/19 06:35:51;;;;;;;10.63;4.43;;;27.50;99.90;;;;;;5028484;28;20036;-66
2023/01/19 06:38:18;;;;;;;13.52;5.63;;;27.50;99.90;;;;;;5029102;28;20045;-68
2023/01/19 06:40:51;;;;;;;13.55;5.13;;;27.60;99.90;;;;;;5021663;28;20053;-67
2023/01/19 06:43:19;;;;;;;15.43;5.40;;;27.60;99.90;;;;;;5014289;28;20030;-66
2023/01/19 06:45:46;;;;;;;14.98;5.03;;;27.60;99.90;;;;;;5014375;28;20038;-67
2023/01/19 06:48:13;;;;;;;11.73;5.18;;;27.70;99.90;;;;;;5014680;28;20050;-68
2023/01/19 06:50:39;;;;;;;14.85;5.40;;;27.70;99.90;;;;;;5013223;28;20040;-68
2023/01/19 06:53:06;;;;;;;15.80;5.13;;;27.70;99.90;;;;;;5015097;28;20402;-68
2023/01/19 06:55:35;;;;;;;12.07;5.45;;;27.70;99.90;;;;;;5015335;28;20021;-68
2023/01/19 06:58:01;;;;;;;12.52;5.18;;;27.70;99.90;;;;;;5024515;28;20534;-67
2023/01/19 07:00:28;;;;;;;12.90;4.53;;;27.70;99.90;;;;;;5021724;28;20427;-72
2023/01/19 07:02:54;;;;;;;9.43;4.53;;;27.70;99.90;;;;;;5024032;28;20104;-68
2023/01/19 07:05:21;;;;;;;13.23;4.55;;;27.80;99.90;;;;;;5023526;28;20169;-66
2023/01/19 07:07:58;;;;;;;11.63;4.80;;;27.80;99.90;;;;;;5023587;28;20536;-66
2023/01/19 07:10:24;;;;;;;16.33;5.97;;;27.80;99.90;;;;;;5020820;28;20478;-70
2023/01/19 07:12:52;;;;;;;13.63;5.32;;;27.80;99.90;;;;;;5023141;28;20029;-66
2023/01/19 07:15:21;;;;;;;14.75;6.03;;;27.80;99.90;;;;;;5022299;28;20022;-67
2023/01/19 07:17:48;;;;;;;12.57;5.10;;;27.90;99.90;;;;;;5021008;28;20494;-67
2023/01/19 07:20:14;;;;;;;13.82;5.35;;;27.90;99.90;;;;;;5010062;28;20052;-67
2023/01/19 07:22:45;;;;;;;17.17;5.07;;;28.00;99.90;;;;;;5011389;28;20033;-68
2023/01/19 07:25:13;;;;;;;12.50;4.28;;;28.00;99.90;;;;;;5011218;28;20080;-68
2023/01/19 07:27:39;;;;;;;13.32;6.00;;;28.00;99.90;;;;;;5011377;28;20076;-69
2023/01/19 07:30:07;;;;;;;13.30;4.80;;;28.00;99.90;;;;;;5011202;28;20160;-68
2023/01/19 07:32:33;;;;;;;15.60;5.43;;;28.00;99.90;;;;;;5011173;28;20014;-72
2023/01/19 07:35:00;;;;;;;14.23;6.93;;;28.00;99.90;;;;;;5011372;28;20018;-67
2023/01/19 07:37:26;;;;;;;14.13;5.03;;;28.10;99.90;;;;;;5016955;28;20088;-67
2023/01/19 07:39:53;;;;;;;11.75;4.80;;;28.10;99.90;;;;;;5015820;28;20096;-68
2023/01/19 07:42:19;;;;;;;12.43;5.40;;;28.10;99.90;;;;;;5018667;28;20029;-67
2023/01/19 07:44:47;;;;;;;15.73;5.57;;;28.20;99.90;;;;;;5019053;28;20486;-69
2023/01/19 07:47:14;;;;;;;16.23;5.97;;;28.20;99.90;;;;;;5018596;28;20032;-68
2023/01/19 07:49:40;;;;;;;13.68;5.05;;;28.30;99.90;;;;;;5021644;28;20025;-68
2023/01/19 07:52:07;;;;;;;17.98;6.43;;;28.30;99.90;;;;;;5023220;28;20026;-68
2023/01/19 07:54:34;;;;;;;14.57;6.15;;;28.30;99.90;;;;;;5021565;28;20016;-68
2023/01/19 07:57:00;;;;;;;9.25;4.50;;;28.30;99.90;;;;;;5024235;28;20048;-68
2023/01/19 07:59:29;;;;;;;12.43;5.40;;;28.30;99.90;;;;;;5026965;28;20091;-69
2023/01/19 08:01:58;;;;;;;15.10;5.97;;;28.30;99.90;;;;;;5020950;28;20026;-67
2023/01/19 08:04:26;;;;;;;33.00;17.48;;;28.30;99.90;;;;;;5021133;28;20029;-67
2023/01/19 08:06:53;;;;;;;39.40;23.20;;;28.20;99.90;;;;;;5018797;28;20026;-67
2023/01/19 08:09:20;;;;;;;23.23;12.70;;;28.30;99.90;;;;;;5020579;28;20049;-68
2023/01/19 08:11:47;;;;;;;17.92;8.65;;;28.30;99.90;;;;;;5021286;28;20021;-67
2023/01/19 08:14:13;;;;;;;11.57;5.95;;;28.40;99.90;;;;;;5016124;28;20108;-72
2023/01/19 08:16:40;;;;;;;13.77;6.18;;;28.30;99.90;;;;;;5026541;28;20016;-66
2023/01/19 08:19:06;;;;;;;17.08;7.22;;;28.40;99.90;;;;;;5027042;28;20032;-68
2023/01/19 08:21:34;;;;;;;11.70;5.28;;;28.40;99.90;;;;;;5022440;28;20018;-67
2023/01/19 08:24:01;;;;;;;11.48;5.75;;;28.40;99.90;;;;;;5025843;28;20033;-68
2023/01/19 08:26:31;;;;;;;15.95;6.72;;;28.40;99.90;;;;;;5025822;28;20095;-67
2023/01/19 08:29:01;;;;;;;14.98;6.78;;;28.40;99.90;;;;;;5024835;28;20022;-67
2023/01/19 08:31:27;;;;;;;17.52;6.53;;;28.50;99.90;;;;;;5023943;28;20021;-68
2023/01/19 08:33:54;;;;;;;14.00;5.40;;;28.50;99.90;;;;;;5021537;28;20022;-67
2023/01/19 08:36:22;;;;;;;14.68;5.50;;;28.50;99.90;;;;;;5024832;28;20104;-67
2023/01/19 08:38:49;;;;;;;16.20;5.78;;;28.50;99.90;;;;;;5021238;28;20057;-67
2023/01/19 08:41:15;;;;;;;15.57;6.15;;;28.40;99.90;;;;;;5025445;28;20036;-67
2023/01/19 08:43:44;;;;;;;19.02;7.78;;;28.50;99.90;;;;;;5024600;28;20033;-67
2023/01/19 08:46:11;;;;;;;18.65;8.40;;;28.50;99.90;;;;;;5026134;28;20038;-66
2023/01/19 08:48:38;;;;;;;19.02;11.18;;;28.50;99.90;;;;;;5024694;28;20025;-68
2023/01/19 08:51:04;;;;;;;35.35;19.35;;;28.50;99.90;;;;;;5024886;28;20286;-68
2023/01/19 08:53:31;;;;;;;15.73;9.32;;;28.50;99.90;;;;;;5026420;28;20018;-67
2023/01/19 08:56:01;;;;;;;21.80;9.43;;;28.50;99.90;;;;;;5023846;28;20026;-68
2023/01/19 08:58:27;;;;;;;23.80;13.00;;;28.50;99.90;;;;;;5023732;28;20017;-66
2023/01/19 09:00:54;;;;;;;20.65;11.25;;;28.50;99.90;;;;;;5031609;28;20037;-66
2023/01/19 09:03:21;;;;;;;13.77;7.45;;;28.50;99.90;;;;;;5035475;28;20424;-68
2023/01/19 09:05:51;;;;;;;14.95;6.97;;;28.50;99.90;;;;;;5026790;28;20034;-66
2023/01/19 09:08:17;;;;;;;16.15;6.90;;;28.50;99.90;;;;;;5021208;28;20518;-68
2023/01/19 09:10:49;;;;;;;17.58;8.20;;;28.50;99.90;;;;;;5025736;28;20278;-66
2023/01/19 09:13:19;;;;;;;22.77;9.23;;;28.40;99.90;;;;;;5015532;28;20026;-67
2023/01/19 09:15:46;;;;;;;18.17;10.05;;;28.50;99.90;;;;;;5015317;28;20026;-67
2023/01/19 09:18:15;;;;;;;28.02;11.98;;;28.50;99.90;;;;;;5015351;28;20017;-68
2023/01/19 09:20:43;;;;;;;37.30;24.45;;;28.50;99.90;;;;;;5015481;28;20029;-69
2023/01/19 09:23:12;;;;;;;36.03;23.20;;;28.50;99.90;;;;;;5015084;28;20038;-71
2023/01/19 09:25:39;;;;;;;33.83;20.30;;;28.60;99.90;;;;;;5015494;28;20140;-67
2023/01/19 09:28:08;;;;;;;40.33;26.55;;;28.50;99.90;;;;;;5015153;28;20076;-66
2023/01/19 09:30:36;;;;;;;38.88;26.88;;;28.50;99.90;;;;;;5014753;28;20422;-68
2023/01/19 09:33:06;;;;;;;27.77;16.25;;;28.50;99.90;;;;;;5023308;28;20053;-68
2023/01/19 09:35:33;;;;;;;37.88;25.42;;;28.60;99.90;;;;;;5020878;28;20049;-69
2023/01/19 09:38:00;;;;;;;34.67;23.67;;;28.60;99.90;;;;;;5022294;28;20021;-69
2023/01/19 09:40:28;;;;;;;54.67;29.50;;;28.50;99.90;;;;;;5016733;28;20025;-68
2023/01/19 09:43:03;;;;;;;46.10;29.52;;;28.50;99.90;;;;;;5022346;28;20100;-68
2023/01/19 09:45:38;;;;;;;34.25;21.92;;;28.50;99.90;;;;;;5026808;28;20052;-69
2023/01/19 09:48:25;;;;;;;39.15;20.02;;;28.60;99.90;;;;;;5023773;28;20109;-68
2023/01/19 09:50:54;;;;;;;32.05;17.05;;;28.50;99.90;;;;;;5023004;28;20037;-67
2023/01/19 09:53:45;;;;;;;40.60;23.10;;;28.60;99.90;;;;;;5021494;28;20025;-68
2023/01/19 09:56:16;;;;;;;36.97;22.80;;;28.60;99.90;;;;;;5024581;28;20025;-68
2023/01/19 09:58:43;;;;;;;42.28;28.02;;;28.50;99.90;;;;;;5024227;28;20025;-68
2023/01/19 10:01:38;;;;;;;37.08;19.67;;;28.50;99.90;;;;;;5022814;28;20160;-67
2023/01/19 10:04:25;;;;;;;23.35;11.93;;;28.50;99.90;;;;;;5022901;28;20543;-68
2023/01/19 10:07:02;;;;;;;27.90;13.35;;;28.50;99.90;;;;;;5023836;28;20030;-67
2023/01/19 10:09:46;;;;;;;28.35;13.18;;;28.50;99.90;;;;;;5025298;28;20061;-67
2023/01/19 10:12:28;;;;;;;22.80;12.07;;;28.50;99.90;;;;;;5025998;28;20028;-67
2023/01/19 10:52:35;;;;;;;36.55;17.27;;;27.50;99.90;;;;;;5128258;27;20416;-69
2023/01/19 10:55:05;;;;;;;38.97;17.17;;;27.50;99.90;;;;;;5120310;28;20510;-68
2023/01/19 10:57:37;;;;;;;38.08;17.00;;;27.60;99.90;;;;;;5130925;28;20023;-69
2023/01/19 11:00:06;;;;;;;32.25;13.43;;;27.80;99.90;;;;;;5146641;27;20061;-68
2023/01/19 11:02:33;;;;;;;34.13;14.88;;;27.80;99.90;;;;;;5151488;27;20386;-69
2023/01/19 11:05:21;;;;;;;37.78;14.75;;;27.90;99.90;;;;;;5151465;27;20396;-69
2023/01/19 11:07:47;;;;;;;33.00;14.32;;;27.90;99.90;;;;;;5149486;27;20026;-68
2023/01/19 11:10:15;;;;;;;28.63;12.93;;;28.00;99.90;;;;;;5151283;27;20486;-68
2023/01/19 11:13:11;;;;;;;37.28;15.18;;;28.00;99.90;;;;;;5149469;27;20071;-68
2023/01/19 11:15:51;;;;;;;27.10;13.70;;;28.00;99.90;;;;;;5140247;27;20098;-67
2023/01/19 11:18:23;;;;;;;42.53;14.50;;;28.00;99.90;;;;;;5151318;27;20022;-67
2023/01/19 11:20:53;;;;;;;35.85;14.43;;;28.00;99.90;;;;;;5149220;27;20399;-68
2023/01/19 11:23:20;;;;;;;36.20;15.45;;;28.00;99.90;;;;;;5151080;27;20035;-68
2023/01/19 11:25:52;;;;;;;37.25;15.02;;;28.00;99.90;;;;;;5150220;27;20472;-71
2023/01/19 11:28:24;;;;;;;37.13;15.45;;;28.00;99.90;;;;;;5152792;27;20501;-71
2023/01/19 11:31:15;;;;;;;40.95;16.83;;;28.00;99.90;;;;;;5150060;27;20057;-69
2023/01/19 11:33:43;;;;;;;35.60;16.42;;;28.00;99.90;;;;;;5151107;27;20471;-69
2023/01/19 11:36:23;;;;;;;41.78;16.60;;;28.00;99.90;;;;;;5151371;27;20034;-70
2023/01/19 11:38:52;;;;;;;28.85;13.27;;;27.90;99.90;;;;;;5151023;27;20055;-69
2023/01/19 11:41:22;;;;;;;40.72;18.00;;;27.90;99.90;;;;;;5151075;27;20088;-68
2023/01/19 11:43:52;;;;;;;42.30;16.85;;;27.80;99.90;;;;;;5150793;27;20023;-68
2023/01/19 11:46:22;;;;;;;39.47;18.23;;;27.80;99.90;;;;;;5150959;27;20026;-70
2023/01/19 11:48:59;;;;;;;35.88;15.60;;;27.70;99.90;;;;;;5152158;27;20019;-69
2023/01/19 11:51:31;;;;;;;27.98;12.13;;;27.70;99.90;;;;;;5151628;27;20436;-69
2023/01/19 11:54:01;;;;;;;24.42;10.93;;;27.60;99.90;;;;;;5151083;27;20054;-69
2023/01/19 11:56:29;;;;;;;22.52;12.00;;;27.60;99.90;;;;;;5149056;27;20023;-68
2023/01/19 11:58:56;;;;;;;27.15;12.65;;;27.50;99.90;;;;;;5152001;27;20030;-69
2023/01/19 12:01:25;;;;;;;20.23;10.95;;;27.50;99.90;;;;;;5150691;27;20355;-69
2023/01/19 12:03:56;;;;;;;18.92;10.20;;;27.50;99.90;;;;;;5135527;27;20019;-69
2023/01/19 12:06:31;;;;;;;20.80;11.07;;;27.50;99.90;;;;;;5137290;27;20102;-73
2023/01/19 12:09:20;;;;;;;23.10;9.95;;;27.40;99.90;;;;;;5135543;27;20030;-68
2023/01/19 12:12:00;;;;;;;22.65;10.15;;;27.40;99.90;;;;;;5135677;27;20072;-69
2023/01/19 12:14:35;;;;;;;27.45;12.85;;;27.40;99.90;;;;;;5136123;27;20495;-70
2023/01/19 12:17:04;;;;;;;22.02;11.10;;;27.30;99.90;;;;;;5135947;27;20038;-69
2023/01/19 12:19:45;;;;;;;29.00;13.95;;;27.20;99.90;;;;;;5136364;27;20413;-72
2023/01/19 12:22:16;;;;;;;22.67;12.07;;;27.20;99.90;;;;;;5135985;27;20737;-71
2023/01/19 12:24:54;;;;;;;22.58;10.80;;;27.20;99.90;;;;;;5136139;27;20019;-71
2023/01/19 12:27:42;;;;;;;18.25;9.93;;;27.20;99.90;;;;;;5134069;27;20042;-71
2023/01/19 12:30:19;;;;;;;19.42;9.73;;;27.20;99.90;;;;;;5109625;27;20042;-73
2023/01/19 12:32:46;;;;;;;13.65;8.65;;;27.20;99.90;;;;;;5134451;27;20086;-72
2023/01/19 12:35:52;;;;;;;17.98;9.43;;;27.10;99.90;;;;;;5135942;27;20011;-73
2023/01/19 12:38:45;;;;;;;20.58;10.57;;;27.10;99.90;;;;;;5133707;27;20016;-71
2023/01/19 12:41:22;;;;;;;19.52;11.68;;;27.10;99.90;;;;;;5135553;27;20026;-72
2023/01/19 12:44:18;;;;;;;25.15;13.23;;;27.10;99.90;;;;;;5135853;27;20538;-72
2023/01/19 12:46:51;;;;;;;23.80;12.43;;;27.10;99.90;;;;;;5134193;27;20102;-72
2023/01/19 12:49:18;;;;;;;26.20;13.32;;;27.00;99.90;;;;;;5133338;27;20023;-72
2023/01/19 12:51:45;;;;;;;29.80;14.10;;;27.00;99.90;;;;;;5131373;27;20039;-73
2023/01/19 12:54:28;;;;;;;29.40;14.80;;;27.00;99.90;;;;;;5129817;27;20026;-73
2023/01/19 12:57:00;;;;;;;29.40;15.93;;;27.00;99.90;;;;;;5131585;27;20015;-74
2023/01/19 12:59:27;;;;;;;;;;;27.00;99.90;;;;;;5133474;27;20027;-72
2023/01/19 13:02:22;;;;;;;24.25;13.85;;;27.00;99.90;;;;;;5132223;27;19907;-73
2023/01/19 13:05:08;;;;;;;25.30;13.10;;;26.90;99.90;;;;;;5134260;27;20379;-72
2023/01/19 13:08:05;;;;;;;28.17;13.77;;;26.90;99.90;;;;;;5131034;27;20380;-72
2023/01/19 13:10:51;;;;;;;24.92;12.95;;;26.90;99.90;;;;;;5134868;27;20067;-72
2023/01/19 13:13:23;;;;;;;23.58;12.63;;;26.80;99.90;;;;;;5134341;27;20065;-72
2023/01/19 13:15:50;;;;;;;25.77;13.02;;;26.80;99.90;;;;;;5134029;27;20019;-70
2023/01/19 13:18:18;;;;;;;23.08;13.15;;;26.80;99.90;;;;;;5134666;27;20132;-71
2023/01/19 13:20:52;;;;;;;24.92;12.85;;;26.80;99.90;;;;;;5135038;27;20085;-72
2023/01/19 13:23:24;;;;;;;24.52;12.30;;;26.80;99.90;;;;;;5131364;27;20023;-72
2023/01/19 13:25:58;;;;;;;33.83;15.05;;;26.90;99.90;;;;;;5132049;27;20129;-73
2023/01/19 13:28:32;;;;;;;23.75;12.90;;;26.90;99.90;;;;;;5130802;27;20024;-72
2023/01/19 13:31:01;;;;;;;29.05;15.35;;;26.80;99.90;;;;;;5130555;27;20027;-72
2023/01/19 13:33:35;;;;;;;29.77;15.70;;;26.80;99.90;;;;;;5135664;27;20034;-70
2023/01/19 13:36:02;;;;;;;32.53;15.32;;;26.80;99.90;;;;;;5134770;27;20027;-71
2023/01/19 13:38:31;;;;;;;38.33;16.60;;;26.80;99.90;;;;;;5134151;27;20067;-72
2023/01/19 13:41:01;;;;;;;30.70;16.40;;;26.80;99.90;;;;;;5134122;27;20031;-72
2023/01/19 13:43:34;;;;;;;35.05;16.27;;;26.80;99.90;;;;;;5134443;27;20015;-71
2023/01/19 13:46:01;;;;;;;39.25;18.45;;;26.90;99.90;;;;;;5128884;27;20343;-72
2023/01/19 13:48:28;;;;;;;34.72;17.65;;;26.90;99.90;;;;;;5134015;27;20063;-72
2023/01/19 13:51:02;;;;;;;29.90;15.93;;;26.90;99.90;;;;;;5131630;27;20027;-71
2023/01/19 13:53:30;;;;;;;34.40;18.15;;;26.90;99.90;;;;;;5133390;27;20053;-71
2023/01/19 13:56:15;;;;;;;37.17;17.90;;;27.00;99.90;;;;;;5130913;27;20019;-71
2023/01/19 13:58:42;;;;;;;35.25;18.15;;;27.00;99.90;;;;;;5130332;27;20023;-73
2023/01/19 14:01:27;;;;;;;33.67;17.50;;;27.00;99.90;;;;;;5129519;27;20884;-71
2023/01/19 14:03:53;;;;;;;30.75;17.85;;;27.00;99.90;;;;;;5132580;27;20042;-73
2023/01/19 14:06:35;;;;;;;42.45;20.55;;;27.00;99.90;;;;;;5133033;27;20316;-72
2023/01/19 14:09:22;;;;;;;40.55;20.70;;;27.00;99.90;;;;;;5131648;27;20034;-71
2023/01/19 14:12:12;;;;;;;40.45;22.13;;;27.00;99.90;;;;;;5132507;27;20023;-71
2023/01/19 14:14:40;;;;;;;35.05;20.92;;;27.00;99.90;;;;;;5130738;27;20015;-71
2023/01/19 14:17:28;;;;;;;45.92;24.38;;;26.90;99.90;;;;;;5132917;27;20023;-70
2023/01/19 14:19:56;;;;;;;54.55;29.60;;;27.00;99.90;;;;;;5127225;27;20026;-70
2023/01/19 14:22:44;;;;;;;67.38;42.13;;;27.00;99.90;;;;;;5131700;27;20019;-71
2023/01/19 14:25:32;;;;;;;66.35;37.97;;;26.90;99.90;;;;;;5131686;27;20110;-72
2023/01/19 14:28:39;;;;;;;61.90;34.08;;;26.90;99.90;;;;;;5131815;27;20136;-72
2023/01/19 14:31:19;;;;;;;54.10;30.30;;;26.90;99.90;;;;;;5113308;27;20118;-71
2023/01/19 14:33:48;;;;;;;54.33;29.27;;;26.90;99.90;;;;;;5131442;27;20070;-71
2023/01/19 14:36:38;;;;;;;45.80;28.92;;;26.90;99.90;;;;;;5131741;27;20022;-71
2023/01/19 14:39:12;;;;;;;50.03;28.13;;;26.90;99.90;;;;;;5130920;27;20114;-70
2023/01/19 14:41:46;;;;;;;55.03;27.55;;;26.90;99.90;;;;;;5132414;27;20349;-72
2023/01/19 14:44:18;;;;;;;42.15;28.42;;;26.90;99.90;;;;;;5133779;27;20278;-69
2023/01/19 14:46:47;;;;;;;52.63;33.75;;;26.90;99.90;;;;;;5133620;27;20019;-72
2023/01/19 14:49:20;;;;;;;48.83;33.08;;;26.80;99.90;;;;;;5133742;28;20104;-70
2023/01/19 14:51:48;;;;;;;57.13;36.45;;;26.80;99.90;;;;;;5133589;28;20035;-72
2023/01/19 14:54:19;;;;;;;93.35;63.17;;;26.80;99.90;;;;;;5133977;28;20037;-72
2023/01/19 14:56:46;;;;;;;61.67;36.55;;;26.90;99.90;;;;;;5132295;28;20019;-73
2023/01/19 14:59:13;;;;;;;58.90;35.83;;;26.90;99.90;;;;;;5134322;28;20035;-72
2023/01/19 15:01:39;;;;;;;52.92;30.42;;;26.90;99.90;;;;;;5130864;28;20046;-73
2023/01/19 15:04:06;;;;;;;43.10;27.05;;;26.80;99.90;;;;;;5128396;28;20047;-72
2023/01/19 15:06:37;;;;;;;47.92;25.98;;;26.90;99.90;;;;;;5130784;28;20055;-71
2023/01/19 15:09:04;;;;;;;42.70;25.10;;;26.80;99.90;;;;;;5131292;28;20353;-72
2023/01/19 15:11:33;;;;;;;43.60;26.25;;;26.80;99.90;;;;;;5130990;28;20872;-72
2023/01/19 15:14:00;;;;;;;40.72;24.52;;;26.80;99.90;;;;;;5132057;28;20487;-71
2023/01/19 15:16:29;;;;;;;47.05;26.13;;;26.80;99.90;;;;;;5132777;28;20517;-72
2023/01/19 15:18:55;;;;;;;46.15;23.65;;;26.80;99.90;;;;;;5132651;28;20023;-73
2023/01/19 15:21:25;;;;;;;44.22;23.92;;;26.80;99.90;;;;;;5133363;28;20022;-73
2023/01/19 15:23:53;;;;;;;43.83;24.00;;;26.80;99.90;;;;;;5133520;28;20102;-72
2023/01/19 15:26:22;;;;;;;39.17;25.00;;;26.80;99.90;;;;;;5132912;28;20106;-72
2023/01/19 15:28:49;;;;;;;40.47;23.75;;;26.80;99.90;;;;;;5134107;28;20487;-71
2023/01/19 15:31:18;;;;;;;46.40;24.70;;;26.80;99.90;;;;;;5133911;28;20100;-72
2023/01/19 15:33:45;;;;;;;39.90;24.25;;;26.70;99.90;;;;;;5112065;22;20056;-69
2023/01/19 15:36:16;;;;;;;41.95;23.60;;;26.70;99.90;;;;;;5074776;28;20013;-72
2023/01/19 15:38:42;;;;;;;42.00;22.52;;;26.70;99.90;;;;;;5076318;28;20125;-71
2023/01/19 15:41:21;;;;;;;40.22;21.20;;;26.70;99.90;;;;;;5076002;28;20403;-72
2023/01/19 15:43:48;;;;;;;35.08;19.83;;;26.70;99.90;;;;;;5076124;28;20025;-72
2023/01/19 15:46:17;;;;;;;34.35;20.25;;;26.70;99.90;;;;;;5057844;28;20464;-72
2023/01/19 15:48:44;;;;;;;37.22;21.23;;;26.70;99.90;;;;;;5075720;28;20434;-71
2023/01/19 15:51:14;;;;;;;37.20;22.50;;;26.60;99.90;;;;;;5075263;28;20024;-69
2023/01/19 15:53:41;;;;;;;38.53;22.23;;;26.60;99.90;;;;;;5075274;28;20134;-71
2023/01/19 15:56:28;;;;;;;37.58;22.50;;;26.60;99.90;;;;;;5079382;28;20034;-72
2023/01/19 15:58:56;;;;;;;38.30;23.42;;;26.60;99.90;;;;;;5080533;28;20024;-72
2023/01/19 16:01:30;;;;;;;38.90;22.52;;;26.60;99.90;;;;;;5088135;28;20488;-72
2023/01/19 16:04:00;;;;;;;44.90;25.23;;;26.60;99.90;;;;;;5086145;28;20038;-72
2023/01/19 16:06:28;;;;;;;40.60;23.52;;;26.70;99.90;;;;;;5087501;28;20024;-72
2023/01/19 16:08:59;;;;;;;43.58;24.60;;;26.70;99.90;;;;;;5081903;28;20025;-74
2023/01/19 16:11:30;;;;;;;37.13;22.83;;;26.70;99.90;;;;;;5087377;28;20028;-71
2023/01/19 16:13:58;;;;;;;45.80;23.33;;;26.70;99.90;;;;;;5081613;28;20261;-73